Latest Weather Observations for Rhyll

IDV60901

Issued at 1:41 pm EST Monday 29 May 2017 (issued every 10 minutes, with the page automatically refreshed every 10 minutes)

About weather observations | Map of Melbourne area stations | Latest observations for Melbourne area | Other Formats
Station Details ID: 086373 Name: RHYLL Lat: -38.46 Lon: 145.31 Height: 13.4 m
Data from the previous 72 hours. | See also: Recent months at Rhyll
Date/Time
EST
Temp
°C
App
Temp
°C
Dew
Point
°C
Rel
Hum
%
Delta-T
°C
Wind Press
QNH
hPa
Press
MSL
hPa
Rain since
9am
mm
Dir  Spd
km/h
Gust
km/h
Spd
kts
Gust
kts
29/01:30pm 13.4 10.5 6.5 63 3.3 NW 11 24 6 13 1018.2 1018.2 0.0
29/01:00pm 13.0 10.2 6.8 66 3.0 NW 11 20 6 11 1018.3 1018.3 0.0
29/12:30pm 12.7 9.4 6.5 66 3.0 WNW 13 24 7 13 1018.4 1018.4 0.0
29/12:00pm 12.5 9.7 6.8 68 2.7 WNW 11 20 6 11 1018.6 1018.6 0.0
29/11:30am 12.3 9.1 6.8 69 2.6 WNW 13 26 7 14 1018.7 1018.7 0.0
29/11:00am 11.8 8.2 6.7 71 2.4 WNW 15 22 8 12 1018.9 1018.9 0.0
29/10:30am 11.9 8.3 6.8 71 2.4 W 15 28 8 15 1018.7 1018.7 0.0
29/10:00am 11.3 8.0 6.4 72 2.3 WNW 13 24 7 13 1018.3 1018.3 0.0
29/09:30am 10.7 7.2 7.4 80 1.6 WNW 15 24 8 13 1018.2 1018.2 0.0
29/09:00am 10.2 6.7 7.1 81 1.5 WNW 15 24 8 13 1017.8 1017.8 13.2
29/08:30am 9.2 7.2 7.0 86 1.0 WNW 7 15 4 8 1017.3 1017.3 13.2
29/08:00am 9.0 6.6 7.0 87 0.9 WNW 9 15 5 8 1017.1 1017.1 13.2
29/07:30am 9.0 6.2 6.8 86 1.0 WNW 11 26 6 14 1016.9 1016.9 13.0
29/07:00am 9.3 7.0 7.4 88 0.9 WNW 9 22 5 12 1016.6 1016.6 13.0
29/06:30am 9.2 6.5 7.2 87 0.9 WNW 11 22 6 12 1016.1 1016.1 13.0
29/06:00am 8.8 5.5 6.3 84 1.1 W 13 22 7 12 1015.6 1015.6 12.6
29/05:30am 8.9 6.0 6.7 86 1.0 W 11 20 6 11 1015.2 1015.2 12.6
29/05:00am 9.0 6.2 7.0 87 0.9 WNW 11 30 6 16 1014.9 1014.9 12.6
29/04:30am 9.2 6.1 7.2 87 0.9 NW 13 22 7 12 1014.6 1014.6 12.6
29/04:00am 9.0 6.9 6.8 86 1.0 W 7 15 4 8 1014.5 1014.5 12.6
29/03:30am 8.9 6.9 7.2 89 0.8 WNW 7 17 4 9 1014.4 1014.4 11.6
29/03:00am 9.1 6.7 7.2 88 0.9 WSW 9 17 5 9 1014.3 1014.3 10.0
29/02:30am 9.0 6.2 7.0 87 0.9 NW 11 24 6 13 1014.1 1014.1 9.6
29/02:00am 9.1 6.0 7.4 89 0.8 WNW 13 20 7 11 1013.7 1013.7 9.6
29/01:30am 8.8 5.9 6.6 86 1.0 W 11 20 6 11 1013.4 1013.4 9.4
29/01:00am 7.6 4.9 5.4 86 1.0 W 9 15 5 8 1013.2 1013.2 9.4
29/12:30am 8.7 5.0 6.3 85 1.1 W 15 37 8 20 1013.1 1013.1 8.8
29/12:00am 8.8 6.3 6.6 86 1.0 W 9 15 5 8 1012.8 1012.8 8.6
 
Date/Time
EST
Temp
°C
App
Temp
°C
Dew
Point
°C
Rel
Hum
%
Delta-T
°C
Wind Press
QNH
hPa
Press
MSL
hPa
Rain since
9am
mm
Dir  Spd
km/h
Gust
km/h
Spd
kts
Gust
kts
28/11:30pm 8.9 5.6 6.5 85 1.1 W 13 20 7 11 1012.7 1012.7 8.6
28/11:00pm 8.2 5.6 6.0 86 1.0 W 9 17 5 9 1012.3 1012.3 8.6
28/10:30pm 8.1 5.5 6.2 88 0.9 WNW 9 20 5 11 1012.1 1012.1 8.6
28/10:00pm 7.7 5.4 5.8 88 0.9 WNW 7 13 4 7 1012.1 1012.1 7.2
28/09:30pm 8.7 5.4 6.2 84 1.1 WSW 13 22 7 12 1011.8 1011.8 4.6
28/09:00pm 9.2 5.9 6.3 82 1.3 W 13 20 7 11 1011.1 1011.1 3.6
28/08:30pm 9.1 6.6 6.5 84 1.2 W 9 19 5 10 1010.7 1010.7 3.4
28/08:00pm 8.7 5.6 5.6 81 1.4 W 11 22 6 12 1010.2 1010.2 2.4
28/07:30pm 9.7 6.0 6.1 78 1.7 W 15 32 8 17 1009.7 1009.7 1.8
28/07:00pm 9.9 6.1 5.7 75 1.9 WNW 15 30 8 16 1009.3 1009.3 1.8
28/06:30pm 10.1 5.8 5.1 71 2.3 W 17 28 9 15 1008.9 1008.9 1.8
28/06:00pm 10.2 6.2 5.0 70 2.4 W 15 28 8 15 1008.5 1008.5 1.8
28/05:30pm 9.9 6.5 5.7 75 1.9 W 13 22 7 12 1008.0 1008.0 1.8
28/05:00pm 10.0 6.3 6.2 77 1.8 W 15 24 8 13 1007.7 1007.7 1.8
28/04:30pm 9.3 6.8 6.7 84 1.2 WNW 9 19 5 10 1007.4 1007.4 1.8
28/04:00pm 9.7 6.0 6.2 79 1.6 W 15 28 8 15 1007.2 1007.2 0.8
28/03:30pm 11.6 8.2 5.9 68 2.7 W 13 26 7 14 1006.8 1006.8 0.4
28/03:00pm 10.7 6.6 6.1 73 2.1 W 17 33 9 18 1006.5 1006.5 0.4
28/02:30pm 12.6 7.8 4.6 58 3.7 W 19 30 10 16 1006.2 1006.2 0.4
28/02:00pm 12.4 9.0 5.8 64 3.1 W 13 24 7 13 1006.3 1006.3 0.4
28/01:30pm 13.1 9.0 6.2 63 3.3 W 17 28 9 15 1006.2 1006.2 0.4
28/01:00pm 11.3 8.2 7.2 76 2.0 W 13 22 7 12 1006.4 1006.4 0.4
28/12:30pm 12.7 9.6 7.2 69 2.7 WNW 13 30 7 16 1006.6 1006.6 0.0
28/12:00pm 11.9 9.2 7.2 73 2.3 WNW 11 32 6 17 1006.8 1006.8 0.0
28/11:30am 11.7 8.4 6.4 70 2.5 WNW 13 32 7 17 1007.1 1007.1 0.0
28/11:00am 12.3 9.1 6.8 69 2.6 WNW 13 22 7 12 1007.1 1007.1 0.0
28/10:30am 12.5 9.3 7.0 69 2.6 WNW 13 24 7 13 1007.0 1007.0 0.0
28/10:00am 11.8 8.6 6.9 72 2.3 WNW 13 24 7 13 1006.9 1006.9 0.0
28/09:30am 11.9 9.2 7.2 73 2.3 WNW 11 24 6 13 1006.7 1006.7 0.0
28/09:00am 11.9 9.4 8.0 77 1.9 WNW 11 22 6 12 1006.7 1006.7 9.0
28/08:30am 11.0 7.9 7.3 78 1.8 WNW 13 24 7 13 1006.6 1006.6 9.0
28/08:00am 10.9 7.8 7.4 79 1.7 WNW 13 26 7 14 1006.3 1006.3 9.0
28/07:30am 11.0 8.4 7.9 81 1.5 WNW 11 20 6 11 1006.2 1006.2 9.0
28/07:00am 11.2 7.9 8.2 82 1.5 NW 15 24 8 13 1006.2 1006.2 9.0
28/06:30am 11.1 8.3 8.7 85 1.2 NW 13 28 7 15 1006.1 1006.1 9.0
28/06:00am 11.2 8.5 8.8 85 1.2 NW 13 28 7 15 1006.0 1006.0 9.0
28/05:30am 11.7 8.4 8.2 79 1.7 NW 15 28 8 15 1005.9 1005.9 9.0
28/05:00am 11.7 7.8 8.7 82 1.5 NW 19 30 10 16 1005.7 1005.7 9.0
28/04:30am 11.3 6.3 8.2 81 1.5 NNW 24 35 13 19 1005.9 1005.9 9.0
28/04:00am 10.9 6.1 8.8 87 1.0 NNW 24 30 13 16 1006.1 1006.1 8.8
28/03:30am 11.1 7.1 9.0 87 1.0 NNW 20 26 11 14 1006.3 1006.3 8.8
28/03:00am 11.3 6.9 9.0 86 1.1 NNW 22 35 12 19 1006.3 1006.3 8.8
28/02:30am 11.1 7.7 9.0 87 1.0 NNW 17 28 9 15 1006.5 1006.5 8.8
28/02:00am 11.2 7.9 9.5 89 0.9 NW 17 32 9 17 1007.3 1007.3 7.8
28/01:30am 11.1 8.9 9.5 90 0.8 WNW 11 20 6 11 1006.8 1006.8 6.6
28/01:00am 11.0 8.4 9.3 89 0.9 W 13 24 7 13 1007.0 1007.0 3.6
28/12:30am 13.1 8.7 7.3 68 2.8 W 20 44 11 24 1007.3 1007.3 0.6
28/12:00am 15.4 8.7 9.5 68 3.1 N 35 50 19 27 1006.5 1006.5 0.6
 
Date/Time
EST
Temp
°C
App
Temp
°C
Dew
Point
°C
Rel
Hum
%
Delta-T
°C
Wind Press
QNH
hPa
Press
MSL
hPa
Rain since
9am
mm
Dir  Spd
km/h
Gust
km/h
Spd
kts
Gust
kts
27/11:30pm 15.6 8.2 9.7 68 3.1 N 39 50 21 27 1006.9 1006.9 0.6
27/11:00pm 15.6 8.1 9.5 67 3.2 N 39 50 21 27 1007.3 1007.3 0.6
27/10:30pm 15.0 9.1 10.4 74 2.4 N 32 39 17 21 1007.9 1007.9 0.6
27/10:00pm 14.7 7.5 10.5 76 2.2 N 39 54 21 29 1009.0 1009.0 0.4
27/09:30pm 15.8 9.7 9.7 67 3.2 N 32 41 17 22 1008.8 1008.8 0.0
27/09:00pm 15.6 9.5 9.7 68 3.1 N 32 39 17 21 1009.0 1009.0 0.0
27/08:30pm 15.5 10.2 9.8 69 3.0 N 28 35 15 19 1009.2 1009.2 0.0
27/08:00pm 15.1 10.6 10.1 72 2.6 NNW 24 32 13 17 1009.8 1009.8 0.0
27/07:30pm 15.3 10.0 9.7 69 2.9 N 28 33 15 18 1009.9 1009.9 0.0
27/07:00pm 15.2 11.6 9.8 70 2.8 N 19 26 10 14 1009.9 1009.9 0.0
27/06:30pm 15.5 11.8 9.6 68 3.1 N 19 30 10 16 1010.0 1010.0 0.0
27/06:00pm 15.7 10.8 9.8 68 3.1 N 26 35 14 19 1010.2 1010.2 0.0
27/05:30pm 15.8 9.1 9.7 67 3.2 N 35 43 19 23 1010.2 1010.2 0.0
27/05:00pm 15.9 9.3 10.0 68 3.1 N 35 41 19 22 1010.3 1010.3 0.0
27/04:30pm 16.1 10.4 9.8 66 3.3 N 30 39 16 21 1010.6 1010.6 0.0
27/04:00pm 16.3 10.6 9.9 66 3.4 N 30 39 16 21 1010.9 1010.9 0.0
27/03:30pm 16.7 9.5 9.1 61 3.9 N 37 50 20 27 1011.2 1011.2 0.0
27/03:00pm 16.6 10.5 9.8 64 3.6 NNW 32 43 17 23 1011.7 1011.7 0.0
27/02:30pm 16.8 10.1 9.5 62 3.8 NNW 35 50 19 27 1011.8 1011.8 0.0
27/02:00pm 16.7 11.4 9.9 64 3.6 NNW 28 35 15 19 1012.4 1012.4 0.0
27/01:30pm 16.8 9.8 10.0 64 3.6 NNW 37 46 20 25 1012.8 1012.8 0.0
27/01:00pm 16.8 10.1 9.5 62 3.8 NNW 35 44 19 24 1013.3 1013.3 0.0
27/12:30pm 16.5 10.2 9.7 64 3.6 N 33 41 18 22 1013.7 1013.7 0.0
27/12:00pm 16.1 10.5 10.2 68 3.1 NNW 30 37 16 20 1014.6 1014.6 0.0
27/11:30am 15.9 9.9 10.2 69 3.0 NNW 32 39 17 21 1015.3 1015.3 0.0
27/11:00am 15.7 9.7 10.0 69 3.0 NNW 32 41 17 22 1015.8 1015.8 0.0
27/10:30am 15.3 9.8 10.5 73 2.5 NNW 30 37 16 20 1016.4 1016.4 0.0
27/10:00am 14.6 9.4 10.4 76 2.2 NNW 28 33 15 18 1016.7 1016.7 0.0
27/09:30am 14.1 9.0 10.5 79 1.9 N 28 33 15 18 1016.8 1016.8 0.0
27/09:00am 13.8 8.3 10.4 80 1.8 NNW 30 37 16 20 1017.1 1017.1 0.0
27/08:30am 13.4 9.1 10.6 83 1.5 NNW 24 28 13 15 1017.1 1017.1 0.0
27/08:00am 13.3 9.7 10.7 84 1.4 NNW 20 24 11 13 1017.1 1017.1 0.0
27/07:30am 13.0 9.0 10.4 84 1.3 NNW 22 28 12 15 1017.0 1017.0 0.0
27/07:00am 12.7 8.2 10.2 85 1.3 N 24 30 13 16 1016.8 1016.8 0.0
27/06:30am 12.3 7.8 9.9 85 1.2 NNW 24 30 13 16 1016.9 1016.9 0.0
27/06:00am 12.4 8.3 10.1 86 1.2 NNW 22 30 12 16 1016.7 1016.7 0.0
27/05:30am 12.2 8.4 9.9 86 1.2 N 20 24 11 13 1016.8 1016.8 0.0
27/05:00am 11.9 8.7 9.8 87 1.1 N 17 24 9 13 1016.9 1016.9 0.0
27/04:30am 11.5 9.3 9.4 87 1.1 N 11 17 6 9 1017.1 1017.1 0.0
27/04:00am 11.8 10.1 9.7 87 1.1 N 9 19 5 10 1017.1 1017.1 0.0
27/03:30am 11.4 10.0 9.5 88 1.0 NNE 7 13 4 7 1017.6 1017.6 0.0
27/03:00am 11.9 10.5 9.6 86 1.2 NNE 7 13 4 7 1017.9 1017.9 0.0
27/02:30am 12.2 9.0 9.9 86 1.2 N 17 22 9 12 1018.0 1018.0 0.0
27/02:00am 12.1 9.2 9.8 86 1.2 N 15 22 8 12 1018.2 1018.2 0.0
27/01:30am 11.9 9.8 9.6 86 1.2 N 11 19 6 10 1018.5 1018.5 0.0
27/01:00am 12.1 9.6 9.7 85 1.2 N 13 19 7 10 1018.7 1018.7 0.0
27/12:30am 12.3 10.2 9.7 84 1.3 N 11 19 6 10 1019.1 1019.1 0.0
27/12:00am 12.3 10.9 9.7 84 1.3 NNE 7 13 4 7 1019.2 1019.2 0.0
 
Date/Time
EST
Temp
°C
App
Temp
°C
Dew
Point
°C
Rel
Hum
%
Delta-T
°C
Wind Press
QNH
hPa
Press
MSL
hPa
Rain since
9am
mm
Dir  Spd
km/h
Gust
km/h
Spd
kts
Gust
kts
26/11:30pm 12.4 11.0 9.6 83 1.4 NE 7 13 4 7 1019.2 1019.2 0.0
26/11:00pm 12.2 10.8 9.4 83 1.4 N 7 13 4 7 1019.3 1019.3 0.0
26/10:30pm 11.5 9.9 8.2 80 1.6 N 6 7 3 4 1019.7 1019.7 0.0
26/10:00pm 11.3 9.5 8.0 80 1.6 NE 7 9 4 5 1019.7 1019.7 0.0
26/09:30pm 10.5 9.2 7.6 82 1.4 ENE 4 6 2 3 1019.7 1019.7 0.0
26/09:00pm 11.4 9.8 8.1 80 1.6 NE 6 7 3 4 1019.9 1019.9 0.0
26/08:30pm 11.6 9.9 8.3 80 1.6 NE 7 9 4 5 1020.0 1020.0 0.0
26/08:00pm 12.1 10.0 8.4 78 1.8 NE 9 11 5 6 1019.9 1019.9 0.0
26/07:30pm 11.7 10.2 9.1 84 1.3 NE 7 11 4 6 1019.9 1019.9 0.0
26/07:00pm 11.8 10.4 8.8 82 1.5 ENE 6 9 3 5 1019.8 1019.8 0.0
26/06:30pm 11.7 11.2 8.0 78 1.8 CALM 0 0 0 0 1019.8 1019.8 0.0
26/06:00pm 12.3 11.7 7.6 73 2.3 CALM 0 0 0 0 1019.8 1019.8 0.0
26/05:30pm 12.0 11.3 7.1 72 2.4 CALM 0 0 0 0 1019.8 1019.8 0.0
26/05:00pm 12.6 11.7 6.0 64 3.1 CALM 0 0 0 0 1019.7 1019.7 0.0
26/04:30pm 13.7 12.8 6.1 60 3.6 CALM 0 0 0 0 1019.9 1019.9 0.0
26/04:00pm 14.7 13.1 6.5 58 4.0 NNW 4 7 2 4 1020.0 1020.0 0.0
26/03:30pm 15.1 13.3 5.3 52 4.6 NNW 4 6 2 3 1020.1 1020.1 0.0
26/03:00pm 15.7 14.0 5.9 52 4.7 N 4 7 2 4 1020.2 1020.2 0.0
26/02:30pm 16.9 15.7 6.4 50 5.2 NNE 2 4 1 2 1020.3 1020.3 0.0
26/02:00pm 17.0 15.9 7.1 52 4.9 NNE 2 4 1 2 1020.5 1020.5 0.0

Latest Capital City Observations: Canberra | Sydney | Melbourne | Brisbane | Adelaide | Perth | Hobart | Darwin

Other Formats:

Comma delimited format used in spreadsheet applications
http://www.bom.gov.au/fwo/IDV60901/IDV60901.94892.axf

JavaScript Object Notation format (JSON) in row-major order
http://www.bom.gov.au/fwo/IDV60901/IDV60901.94892.json